sensor_id;sensor_type;location;lat;lon;timestamp;temperature;humidity
45233;DHT22;30969;51.052;17.056;2022-11-13T19:47:25;6.40;83.90
45233;DHT22;30969;51.052;17.056;2022-11-13T19:52:28;6.50;86.60
45233;DHT22;30969;51.052;17.056;2022-11-13T19:57:34;6.90;84.50
45233;DHT22;30969;51.052;17.056;2022-11-13T20:02:39;7.20;82.70
45233;DHT22;30969;51.052;17.056;2022-11-13T20:07:43;7.50;81.40
45233;DHT22;30969;51.052;17.056;2022-11-13T20:12:46;7.60;80.50
45233;DHT22;30969;51.052;17.056;2022-11-13T20:17:51;7.80;79.80
45233;DHT22;30969;51.052;17.056;2022-11-13T20:22:55;7.70;79.90
45233;DHT22;30969;51.052;17.056;2022-11-13T20:27:58;7.80;80.10
45233;DHT22;30969;51.052;17.056;2022-11-13T20:33:03;7.90;80.80
45233;DHT22;30969;51.052;17.056;2022-11-13T20:38:07;7.90;79.50
45233;DHT22;30969;51.052;17.056;2022-11-13T20:43:11;7.90;79.30
45233;DHT22;30969;51.052;17.056;2022-11-13T20:48:16;7.90;79.80
45233;DHT22;30969;51.052;17.056;2022-11-13T20:53:19;8.00;79.70
45233;DHT22;30969;51.052;17.056;2022-11-13T20:58:23;8.10;79.60
45233;DHT22;30969;51.052;17.056;2022-11-13T21:03:28;8.10;79.40
45233;DHT22;30969;51.052;17.056;2022-11-13T21:08:32;8.20;79.30
45233;DHT22;30969;51.052;17.056;2022-11-13T21:13:35;8.20;79.20
45233;DHT22;30969;51.052;17.056;2022-11-13T21:18:40;8.20;79.30
45233;DHT22;30969;51.052;17.056;2022-11-13T21:23:45;8.20;79.10
45233;DHT22;30969;51.052;17.056;2022-11-13T21:28:51;8.20;79.30
45233;DHT22;30969;51.052;17.056;2022-11-13T21:33:56;8.20;79.50
45233;DHT22;30969;51.052;17.056;2022-11-13T21:39:02;8.20;79.40
45233;DHT22;30969;51.052;17.056;2022-11-13T21:44:06;8.20;79.40
45233;DHT22;30969;51.052;17.056;2022-11-13T21:49:13;8.10;78.90
45233;DHT22;30969;51.052;17.056;2022-11-13T21:54:16;8.00;78.90
45233;DHT22;30969;51.052;17.056;2022-11-13T21:59:20;8.10;79.30
45233;DHT22;30969;51.052;17.056;2022-11-13T22:04:24;8.10;79.10
45233;DHT22;30969;51.052;17.056;2022-11-13T22:09:28;8.10;79.10
45233;DHT22;30969;51.052;17.056;2022-11-13T22:14:32;8.10;79.10
45233;DHT22;30969;51.052;17.056;2022-11-13T22:19:37;8.20;79.00
45233;DHT22;30969;51.052;17.056;2022-11-13T22:24:40;8.20;78.90
45233;DHT22;30969;51.052;17.056;2022-11-13T22:29:44;8.20;79.00
45233;DHT22;30969;51.052;17.056;2022-11-13T22:34:49;8.20;79.10
45233;DHT22;30969;51.052;17.056;2022-11-13T22:39:52;8.20;79.10
45233;DHT22;30969;51.052;17.056;2022-11-13T22:44:55;8.20;79.10
45233;DHT22;30969;51.052;17.056;2022-11-13T22:50:00;8.30;78.80
45233;DHT22;30969;51.052;17.056;2022-11-13T22:55:05;8.30;78.80
45233;DHT22;30969;51.052;17.056;2022-11-13T23:00:10;8.20;78.60
45233;DHT22;30969;51.052;17.056;2022-11-13T23:05:14;8.20;79.30
45233;DHT22;30969;51.052;17.056;2022-11-13T23:10:18;8.20;78.50
45233;DHT22;30969;51.052;17.056;2022-11-13T23:15:21;8.10;78.50
45233;DHT22;30969;51.052;17.056;2022-11-13T23:20:26;8.10;78.40
45233;DHT22;30969;51.052;17.056;2022-11-13T23:25:31;8.10;78.30
45233;DHT22;30969;51.052;17.056;2022-11-13T23:30:34;8.00;78.40
45233;DHT22;30969;51.052;17.056;2022-11-13T23:35:40;8.00;78.30
45233;DHT22;30969;51.052;17.056;2022-11-13T23:40:44;8.00;78.00
45233;DHT22;30969;51.052;17.056;2022-11-13T23:45:48;7.90;78.50
45233;DHT22;30969;51.052;17.056;2022-11-13T23:50:53;7.80;78.50
45233;DHT22;30969;51.052;17.056;2022-11-13T23:55:56;7.80;78.80
